sensor_id;sensor_type;location;lat;lon;timestamp;temperature;humidity
40996;DHT22;26723;57.478;12.066;2023-02-08T00:00:37;4.30;99.90
40996;DHT22;26723;57.478;12.066;2023-02-08T00:03:46;4.30;99.90
40996;DHT22;26723;57.478;12.066;2023-02-08T00:06:55;4.30;99.90
40996;DHT22;26723;57.478;12.066;2023-02-08T00:10:06;4.30;99.90
40996;DHT22;26723;57.478;12.066;2023-02-08T00:13:16;4.20;99.90
40996;DHT22;26723;57.478;12.066;2023-02-08T00:16:24;4.10;99.90
40996;DHT22;26723;57.478;12.066;2023-02-08T00:19:33;4.10;99.90
40996;DHT22;26723;57.478;12.066;2023-02-08T00:22:41;4.10;99.90
40996;DHT22;26723;57.478;12.066;2023-02-08T00:25:51;4.10;99.90
40996;DHT22;26723;57.478;12.066;2023-02-08T00:28:59;4.10;99.90
40996;DHT22;26723;57.478;12.066;2023-02-08T00:32:08;4.10;99.90
40996;DHT22;26723;57.478;12.066;2023-02-08T00:35:17;4.10;99.90
40996;DHT22;26723;57.478;12.066;2023-02-08T00:38:25;4.20;99.90
40996;DHT22;26723;57.478;12.066;2023-02-08T00:41:35;4.10;99.90
40996;DHT22;26723;57.478;12.066;2023-02-08T00:44:44;4.10;99.90
40996;DHT22;26723;57.478;12.066;2023-02-08T00:47:52;4.10;99.90
40996;DHT22;26723;57.478;12.066;2023-02-08T00:51:02;4.10;99.90
40996;DHT22;26723;57.478;12.066;2023-02-08T00:54:12;4.10;99.90
40996;DHT22;26723;57.478;12.066;2023-02-08T00:57:22;4.10;99.90
40996;DHT22;26723;57.478;12.066;2023-02-08T01:00:31;4.20;99.90
40996;DHT22;26723;57.478;12.066;2023-02-08T01:03:40;4.20;99.90
40996;DHT22;26723;57.478;12.066;2023-02-08T01:06:49;4.20;99.90
40996;DHT22;26723;57.478;12.066;2023-02-08T01:09:57;4.20;99.90
40996;DHT22;26723;57.478;12.066;2023-02-08T01:13:08;4.20;99.90
40996;DHT22;26723;57.478;12.066;2023-02-08T01:16:19;4.20;99.90
40996;DHT22;26723;57.478;12.066;2023-02-08T01:19:27;4.20;99.90
40996;DHT22;26723;57.478;12.066;2023-02-08T01:22:36;4.30;99.90
40996;DHT22;26723;57.478;12.066;2023-02-08T01:25:44;4.30;99.90
40996;DHT22;26723;57.478;12.066;2023-02-08T01:28:55;4.30;99.90
40996;DHT22;26723;57.478;12.066;2023-02-08T01:32:04;4.30;99.90
40996;DHT22;26723;57.478;12.066;2023-02-08T01:35:12;4.40;99.90
40996;DHT22;26723;57.478;12.066;2023-02-08T01:38:21;4.40;99.90
40996;DHT22;26723;57.478;12.066;2023-02-08T01:41:32;4.40;99.90
40996;DHT22;26723;57.478;12.066;2023-02-08T01:45:20;4.40;99.90
40996;DHT22;26723;57.478;12.066;2023-02-08T01:48:33;4.50;99.90
40996;DHT22;26723;57.478;12.066;2023-02-08T01:51:44;4.50;99.90
40996;DHT22;26723;57.478;12.066;2023-02-08T01:54:56;4.50;99.90
40996;DHT22;26723;57.478;12.066;2023-02-08T01:58:09;4.50;99.90
40996;DHT22;26723;57.478;12.066;2023-02-08T02:01:19;4.50;99.90
40996;DHT22;26723;57.478;12.066;2023-02-08T02:04:29;4.50;99.90
40996;DHT22;26723;57.478;12.066;2023-02-08T02:07:40;4.50;99.90
40996;DHT22;26723;57.478;12.066;2023-02-08T02:10:48;4.50;99.90
40996;DHT22;26723;57.478;12.066;2023-02-08T02:13:57;4.50;99.90
40996;DHT22;26723;57.478;12.066;2023-02-08T02:17:10;4.50;99.90
40996;DHT22;26723;57.478;12.066;2023-02-08T02:20:26;4.50;99.90
40996;DHT22;26723;57.478;12.066;2023-02-08T02:24:17;4.50;99.90
40996;DHT22;26723;57.478;12.066;2023-02-08T02:27:43;4.50;99.90
40996;DHT22;26723;57.478;12.066;2023-02-08T02:34:51;4.50;99.90
40996;DHT22;26723;57.478;12.066;2023-02-08T02:38:09;4.50;99.90
40996;DHT22;26723;57.478;12.066;2023-02-08T02:41:25;4.50;99.90
40996;DHT22;26723;57.478;12.066;2023-02-08T02:45:04;4.50;99.90
40996;DHT22;26723;57.478;12.066;2023-02-08T02:48:18;4.50;99.90
40996;DHT22;26723;57.478;12.066;2023-02-08T02:51:37;4.60;99.90
40996;DHT22;26723;57.478;12.066;2023-02-08T02:54:49;4.60;99.90
40996;DHT22;26723;57.478;12.066;2023-02-08T02:57:59;4.60;99.90
40996;DHT22;26723;57.478;12.066;2023-02-08T03:01:09;4.60;99.90
40996;DHT22;26723;57.478;12.066;2023-02-08T03:08:00;4.60;99.90
40996;DHT22;26723;57.478;12.066;2023-02-08T03:11:15;4.60;99.90
40996;DHT22;26723;57.478;12.066;2023-02-08T03:14:32;4.60;99.90
40996;DHT22;26723;57.478;12.066;2023-02-08T03:17:49;4.60;99.90
40996;DHT22;26723;57.478;12.066;2023-02-08T03:21:08;4.60;99.90
40996;DHT22;26723;57.478;12.066;2023-02-08T03:24:28;4.50;99.90
40996;DHT22;26723;57.478;12.066;2023-02-08T03:27:41;4.60;99.90
40996;DHT22;26723;57.478;12.066;2023-02-08T03:31:00;4.50;99.90
40996;DHT22;26723;57.478;12.066;2023-02-08T03:34:14;4.50;99.90
40996;DHT22;26723;57.478;12.066;2023-02-08T03:37:26;4.50;99.90
40996;DHT22;26723;57.478;12.066;2023-02-08T03:40:42;4.50;99.90
40996;DHT22;26723;57.478;12.066;2023-02-08T03:43:53;4.50;99.90
40996;DHT22;26723;57.478;12.066;2023-02-08T03:47:06;4.50;99.90
40996;DHT22;26723;57.478;12.066;2023-02-08T03:50:18;4.50;99.90
40996;DHT22;26723;57.478;12.066;2023-02-08T03:53:27;4.50;99.90
40996;DHT22;26723;57.478;12.066;2023-02-08T03:56:43;4.50;99.90
40996;DHT22;26723;57.478;12.066;2023-02-08T03:59:55;4.40;99.90
40996;DHT22;26723;57.478;12.066;2023-02-08T04:03:07;4.40;99.90
40996;DHT22;26723;57.478;12.066;2023-02-08T04:06:18;4.40;99.90
40996;DHT22;26723;57.478;12.066;2023-02-08T04:09:27;4.40;99.90
40996;DHT22;26723;57.478;12.066;2023-02-08T04:12:37;4.40;99.90
40996;DHT22;26723;57.478;12.066;2023-02-08T04:15:45;4.30;99.90
40996;DHT22;26723;57.478;12.066;2023-02-08T04:18:54;4.40;99.90
40996;DHT22;26723;57.478;12.066;2023-02-08T04:22:02;4.40;99.90
40996;DHT22;26723;57.478;12.066;2023-02-08T04:25:10;4.40;99.90
40996;DHT22;26723;57.478;12.066;2023-02-08T04:28:20;4.40;99.90
40996;DHT22;26723;57.478;12.066;2023-02-08T04:31:29;4.30;99.90
40996;DHT22;26723;57.478;12.066;2023-02-08T04:34:37;4.40;99.90
40996;DHT22;26723;57.478;12.066;2023-02-08T04:37:46;4.30;99.90
40996;DHT22;26723;57.478;12.066;2023-02-08T04:40:54;4.30;99.90
40996;DHT22;26723;57.478;12.066;2023-02-08T04:44:04;4.30;99.90
40996;DHT22;26723;57.478;12.066;2023-02-08T04:47:12;4.30;99.90
40996;DHT22;26723;57.478;12.066;2023-02-08T04:50:21;4.30;99.90
40996;DHT22;26723;57.478;12.066;2023-02-08T04:53:29;4.30;99.90
40996;DHT22;26723;57.478;12.066;2023-02-08T04:56:38;4.30;99.90
40996;DHT22;26723;57.478;12.066;2023-02-08T04:59:48;4.30;99.90
40996;DHT22;26723;57.478;12.066;2023-02-08T05:02:57;4.30;99.90
40996;DHT22;26723;57.478;12.066;2023-02-08T05:06:06;4.30;99.90
40996;DHT22;26723;57.478;12.066;2023-02-08T05:09:14;4.30;99.90
40996;DHT22;26723;57.478;12.066;2023-02-08T05:12:23;4.30;99.90
40996;DHT22;26723;57.478;12.066;2023-02-08T05:15:33;4.30;99.90
40996;DHT22;26723;57.478;12.066;2023-02-08T05:18:42;4.30;99.90
40996;DHT22;26723;57.478;12.066;2023-02-08T05:21:50;4.30;99.90
40996;DHT22;26723;57.478;12.066;2023-02-08T05:24:59;4.30;99.90
40996;DHT22;26723;57.478;12.066;2023-02-08T05:28:07;4.30;99.90
40996;DHT22;26723;57.478;12.066;2023-02-08T05:31:19;4.30;99.90
40996;DHT22;26723;57.478;12.066;2023-02-08T05:34:29;4.30;99.90
40996;DHT22;26723;57.478;12.066;2023-02-08T05:37:37;4.30;99.90
40996;DHT22;26723;57.478;12.066;2023-02-08T05:40:46;4.20;99.90
40996;DHT22;26723;57.478;12.066;2023-02-08T05:43:55;4.20;99.90
40996;DHT22;26723;57.478;12.066;2023-02-08T05:47:05;4.20;99.90
40996;DHT22;26723;57.478;12.066;2023-02-08T05:50:14;4.20;99.90
40996;DHT22;26723;57.478;12.066;2023-02-08T05:53:23;4.20;99.90
40996;DHT22;26723;57.478;12.066;2023-02-08T05:56:31;4.20;99.90
40996;DHT22;26723;57.478;12.066;2023-02-08T05:59:41;4.20;99.90
40996;DHT22;26723;57.478;12.066;2023-02-08T06:02:50;4.20;99.90
40996;DHT22;26723;57.478;12.066;2023-02-08T06:05:59;4.30;99.90
40996;DHT22;26723;57.478;12.066;2023-02-08T06:09:07;4.20;99.90
40996;DHT22;26723;57.478;12.066;2023-02-08T06:12:16;4.20;99.90
40996;DHT22;26723;57.478;12.066;2023-02-08T06:15:24;4.20;99.90
40996;DHT22;26723;57.478;12.066;2023-02-08T06:18:34;4.20;99.90
40996;DHT22;26723;57.478;12.066;2023-02-08T06:21:43;4.20;99.90
40996;DHT22;26723;57.478;12.066;2023-02-08T06:24:51;4.20;99.90
40996;DHT22;26723;57.478;12.066;2023-02-08T06:28:00;4.10;99.90
40996;DHT22;26723;57.478;12.066;2023-02-08T06:31:09;4.10;99.90
40996;DHT22;26723;57.478;12.066;2023-02-08T06:34:19;4.10;99.90
40996;DHT22;26723;57.478;12.066;2023-02-08T06:37:28;4.10;99.90
40996;DHT22;26723;57.478;12.066;2023-02-08T06:40:36;4.10;99.90
40996;DHT22;26723;57.478;12.066;2023-02-08T06:43:45;4.10;99.90
40996;DHT22;26723;57.478;12.066;2023-02-08T06:46:54;4.10;99.90
40996;DHT22;26723;57.478;12.066;2023-02-08T06:50:04;4.10;99.90
40996;DHT22;26723;57.478;12.066;2023-02-08T06:53:13;4.10;99.90
40996;DHT22;26723;57.478;12.066;2023-02-08T06:56:22;4.10;99.90
40996;DHT22;26723;57.478;12.066;2023-02-08T06:59:30;4.10;99.90
40996;DHT22;26723;57.478;12.066;2023-02-08T07:02:39;4.10;99.90
40996;DHT22;26723;57.478;12.066;2023-02-08T07:05:49;4.10;99.90
40996;DHT22;26723;57.478;12.066;2023-02-08T07:09:11;4.10;99.90
40996;DHT22;26723;57.478;12.066;2023-02-08T07:12:19;4.10;99.90
40996;DHT22;26723;57.478;12.066;2023-02-08T07:15:28;4.10;99.90
40996;DHT22;26723;57.478;12.066;2023-02-08T07:18:36;4.10;99.90
40996;DHT22;26723;57.478;12.066;2023-02-08T07:21:46;4.20;99.90
40996;DHT22;26723;57.478;12.066;2023-02-08T07:24:55;4.20;99.90
40996;DHT22;26723;57.478;12.066;2023-02-08T07:28:03;4.20;99.90
40996;DHT22;26723;57.478;12.066;2023-02-08T07:31:13;4.20;99.90
40996;DHT22;26723;57.478;12.066;2023-02-08T07:34:22;4.20;99.90
40996;DHT22;26723;57.478;12.066;2023-02-08T07:37:32;4.20;99.90
40996;DHT22;26723;57.478;12.066;2023-02-08T07:40:40;4.10;99.90
40996;DHT22;26723;57.478;12.066;2023-02-08T07:43:49;4.10;99.90
40996;DHT22;26723;57.478;12.066;2023-02-08T07:46:57;4.10;99.90
40996;DHT22;26723;57.478;12.066;2023-02-08T07:50:08;4.10;99.90
40996;DHT22;26723;57.478;12.066;2023-02-08T07:53:17;4.20;99.90
40996;DHT22;26723;57.478;12.066;2023-02-08T07:56:26;4.20;99.90
40996;DHT22;26723;57.478;12.066;2023-02-08T07:59:35;4.20;99.90
40996;DHT22;26723;57.478;12.066;2023-02-08T08:02:43;4.20;99.90
40996;DHT22;26723;57.478;12.066;2023-02-08T08:05:52;4.20;99.90
40996;DHT22;26723;57.478;12.066;2023-02-08T08:09:02;4.20;99.90
40996;DHT22;26723;57.478;12.066;2023-02-08T08:12:11;4.20;99.90
40996;DHT22;26723;57.478;12.066;2023-02-08T08:15:20;4.20;99.90
40996;DHT22;26723;57.478;12.066;2023-02-08T08:18:28;4.20;99.90
40996;DHT22;26723;57.478;12.066;2023-02-08T08:21:37;4.20;99.90
40996;DHT22;26723;57.478;12.066;2023-02-08T08:24:47;4.20;99.90
40996;DHT22;26723;57.478;12.066;2023-02-08T08:27:55;4.30;99.90
40996;DHT22;26723;57.478;12.066;2023-02-08T08:31:09;4.20;99.90
40996;DHT22;26723;57.478;12.066;2023-02-08T08:34:17;4.30;99.90
40996;DHT22;26723;57.478;12.066;2023-02-08T08:37:26;4.20;99.90
40996;DHT22;26723;57.478;12.066;2023-02-08T08:40:35;4.30;99.90
40996;DHT22;26723;57.478;12.066;2023-02-08T08:43:44;4.30;99.90
40996;DHT22;26723;57.478;12.066;2023-02-08T08:46:54;4.20;99.90
40996;DHT22;26723;57.478;12.066;2023-02-08T08:50:03;4.20;99.90
40996;DHT22;26723;57.478;12.066;2023-02-08T08:53:12;4.20;99.90
40996;DHT22;26723;57.478;12.066;2023-02-08T08:56:22;4.20;99.90
40996;DHT22;26723;57.478;12.066;2023-02-08T08:59:30;4.20;99.90
40996;DHT22;26723;57.478;12.066;2023-02-08T09:02:39;4.20;99.90
40996;DHT22;26723;57.478;12.066;2023-02-08T09:05:47;4.20;99.90
40996;DHT22;26723;57.478;12.066;2023-02-08T09:08:55;4.20;99.90
40996;DHT22;26723;57.478;12.066;2023-02-08T09:12:05;4.20;99.90
40996;DHT22;26723;57.478;12.066;2023-02-08T09:15:14;4.20;99.90
40996;DHT22;26723;57.478;12.066;2023-02-08T09:18:22;4.20;99.90
40996;DHT22;26723;57.478;12.066;2023-02-08T09:21:31;4.30;99.90
40996;DHT22;26723;57.478;12.066;2023-02-08T09:24:40;4.30;99.90
40996;DHT22;26723;57.478;12.066;2023-02-08T09:27:50;4.30;99.90
40996;DHT22;26723;57.478;12.066;2023-02-08T09:31:05;4.40;99.90
40996;DHT22;26723;57.478;12.066;2023-02-08T09:34:14;4.40;99.90
40996;DHT22;26723;57.478;12.066;2023-02-08T09:37:22;4.40;99.90
40996;DHT22;26723;57.478;12.066;2023-02-08T09:40:37;4.40;99.90
40996;DHT22;26723;57.478;12.066;2023-02-08T09:43:55;4.50;99.90
40996;DHT22;26723;57.478;12.066;2023-02-08T09:47:13;4.50;99.90
40996;DHT22;26723;57.478;12.066;2023-02-08T09:50:30;4.50;99.90
40996;DHT22;26723;57.478;12.066;2023-02-08T09:53:40;4.50;99.90
40996;DHT22;26723;57.478;12.066;2023-02-08T09:56:52;4.50;99.90
40996;DHT22;26723;57.478;12.066;2023-02-08T10:00:06;4.60;99.90
40996;DHT22;26723;57.478;12.066;2023-02-08T10:03:36;4.60;99.90
40996;DHT22;26723;57.478;12.066;2023-02-08T10:06:45;4.60;99.90
40996;DHT22;26723;57.478;12.066;2023-02-08T10:09:58;4.60;99.90
40996;DHT22;26723;57.478;12.066;2023-02-08T10:13:17;4.70;99.90
40996;DHT22;26723;57.478;12.066;2023-02-08T10:16:57;4.70;99.90
40996;DHT22;26723;57.478;12.066;2023-02-08T10:20:17;4.80;99.90
40996;DHT22;26723;57.478;12.066;2023-02-08T10:23:38;4.80;99.90
40996;DHT22;26723;57.478;12.066;2023-02-08T10:26:55;4.90;99.90
40996;DHT22;26723;57.478;12.066;2023-02-08T10:30:23;4.90;99.90
40996;DHT22;26723;57.478;12.066;2023-02-08T10:33:43;4.80;99.90
40996;DHT22;26723;57.478;12.066;2023-02-08T10:36:55;4.90;99.90
40996;DHT22;26723;57.478;12.066;2023-02-08T10:40:25;4.90;99.90
40996;DHT22;26723;57.478;12.066;2023-02-08T10:43:41;4.90;99.90
40996;DHT22;26723;57.478;12.066;2023-02-08T10:47:00;5.00;99.90
40996;DHT22;26723;57.478;12.066;2023-02-08T10:50:23;5.00;99.90
40996;DHT22;26723;57.478;12.066;2023-02-08T10:53:44;4.90;99.90
40996;DHT22;26723;57.478;12.066;2023-02-08T10:57:01;5.00;99.90
40996;DHT22;26723;57.478;12.066;2023-02-08T11:00:18;5.00;99.90
40996;DHT22;26723;57.478;12.066;2023-02-08T11:03:37;5.00;99.90
40996;DHT22;26723;57.478;12.066;2023-02-08T11:06:51;5.00;99.90
40996;DHT22;26723;57.478;12.066;2023-02-08T11:10:22;4.90;99.90
40996;DHT22;26723;57.478;12.066;2023-02-08T11:13:34;5.00;99.90
40996;DHT22;26723;57.478;12.066;2023-02-08T11:16:49;5.00;99.90
40996;DHT22;26723;57.478;12.066;2023-02-08T11:20:00;5.00;99.90
40996;DHT22;26723;57.478;12.066;2023-02-08T11:23:21;5.10;99.90
40996;DHT22;26723;57.478;12.066;2023-02-08T11:26:32;5.00;99.90
40996;DHT22;26723;57.478;12.066;2023-02-08T11:30:16;5.10;99.90
40996;DHT22;26723;57.478;12.066;2023-02-08T11:33:26;5.00;99.90
40996;DHT22;26723;57.478;12.066;2023-02-08T11:36:42;5.00;99.90
40996;DHT22;26723;57.478;12.066;2023-02-08T11:40:00;5.10;99.90
40996;DHT22;26723;57.478;12.066;2023-02-08T11:43:21;5.10;99.90
40996;DHT22;26723;57.478;12.066;2023-02-08T11:46:33;5.10;99.90
40996;DHT22;26723;57.478;12.066;2023-02-08T11:49:43;5.00;99.90
40996;DHT22;26723;57.478;12.066;2023-02-08T11:52:59;5.00;99.90
40996;DHT22;26723;57.478;12.066;2023-02-08T11:56:17;5.10;99.90
40996;DHT22;26723;57.478;12.066;2023-02-08T11:59:26;5.10;99.90
40996;DHT22;26723;57.478;12.066;2023-02-08T12:02:37;5.10;99.90
40996;DHT22;26723;57.478;12.066;2023-02-08T12:05:53;5.10;99.90
40996;DHT22;26723;57.478;12.066;2023-02-08T12:09:10;5.00;99.90
40996;DHT22;26723;57.478;12.066;2023-02-08T12:12:28;5.00;99.90
40996;DHT22;26723;57.478;12.066;2023-02-08T12:15:45;4.90;99.90
40996;DHT22;26723;57.478;12.066;2023-02-08T12:22:59;4.90;99.90
40996;DHT22;26723;57.478;12.066;2023-02-08T12:26:16;5.00;99.90
40996;DHT22;26723;57.478;12.066;2023-02-08T12:29:39;5.00;99.90
40996;DHT22;26723;57.478;12.066;2023-02-08T12:33:06;5.10;99.90
40996;DHT22;26723;57.478;12.066;2023-02-08T12:36:29;4.90;99.90
40996;DHT22;26723;57.478;12.066;2023-02-08T12:39:45;4.70;99.90
40996;DHT22;26723;57.478;12.066;2023-02-08T12:43:26;4.60;99.90
40996;DHT22;26723;57.478;12.066;2023-02-08T12:46:49;4.70;99.90
40996;DHT22;26723;57.478;12.066;2023-02-08T12:50:04;4.60;99.90
40996;DHT22;26723;57.478;12.066;2023-02-08T12:53:18;4.60;99.90
40996;DHT22;26723;57.478;12.066;2023-02-08T12:56:32;4.40;99.90
40996;DHT22;26723;57.478;12.066;2023-02-08T12:59:45;4.30;99.90
40996;DHT22;26723;57.478;12.066;2023-02-08T13:03:03;4.20;99.90
40996;DHT22;26723;57.478;12.066;2023-02-08T13:06:17;4.30;99.90
40996;DHT22;26723;57.478;12.066;2023-02-08T13:09:37;4.10;99.90
40996;DHT22;26723;57.478;12.066;2023-02-08T13:12:48;3.90;99.90
40996;DHT22;26723;57.478;12.066;2023-02-08T13:16:02;3.80;99.90
40996;DHT22;26723;57.478;12.066;2023-02-08T13:19:24;3.80;99.90
40996;DHT22;26723;57.478;12.066;2023-02-08T13:22:36;3.80;99.90
40996;DHT22;26723;57.478;12.066;2023-02-08T13:25:47;3.80;99.90
40996;DHT22;26723;57.478;12.066;2023-02-08T13:28:58;3.80;99.90
40996;DHT22;26723;57.478;12.066;2023-02-08T13:32:14;3.80;99.90
40996;DHT22;26723;57.478;12.066;2023-02-08T13:35:27;3.80;99.90
40996;DHT22;26723;57.478;12.066;2023-02-08T13:38:36;3.70;99.90
40996;DHT22;26723;57.478;12.066;2023-02-08T13:41:50;3.70;99.90
40996;DHT22;26723;57.478;12.066;2023-02-08T13:45:02;3.70;99.90
40996;DHT22;26723;57.478;12.066;2023-02-08T13:48:14;3.60;99.90
40996;DHT22;26723;57.478;12.066;2023-02-08T13:51:51;3.60;99.90
40996;DHT22;26723;57.478;12.066;2023-02-08T13:58:59;3.60;99.90
40996;DHT22;26723;57.478;12.066;2023-02-08T14:02:26;3.60;99.90
40996;DHT22;26723;57.478;12.066;2023-02-08T14:05:46;3.60;99.90
40996;DHT22;26723;57.478;12.066;2023-02-08T14:09:03;3.70;99.90
40996;DHT22;26723;57.478;12.066;2023-02-08T14:12:19;3.60;99.90
40996;DHT22;26723;57.478;12.066;2023-02-08T14:15:33;3.60;99.90
40996;DHT22;26723;57.478;12.066;2023-02-08T14:18:50;3.60;99.90
40996;DHT22;26723;57.478;12.066;2023-02-08T14:22:01;3.60;99.90
40996;DHT22;26723;57.478;12.066;2023-02-08T14:25:17;3.60;99.90
40996;DHT22;26723;57.478;12.066;2023-02-08T14:28:29;3.50;99.90
40996;DHT22;26723;57.478;12.066;2023-02-08T14:31:41;3.50;99.90
40996;DHT22;26723;57.478;12.066;2023-02-08T14:34:58;3.50;99.90
40996;DHT22;26723;57.478;12.066;2023-02-08T14:42:02;3.50;99.90
40996;DHT22;26723;57.478;12.066;2023-02-08T14:45:30;3.40;99.90
40996;DHT22;26723;57.478;12.066;2023-02-08T14:48:43;3.50;99.90
40996;DHT22;26723;57.478;12.066;2023-02-08T14:51:57;3.40;99.90
40996;DHT22;26723;57.478;12.066;2023-02-08T14:55:12;3.40;99.90
40996;DHT22;26723;57.478;12.066;2023-02-08T14:58:33;3.40;99.90
40996;DHT22;26723;57.478;12.066;2023-02-08T15:01:44;3.40;99.90
40996;DHT22;26723;57.478;12.066;2023-02-08T15:04:52;3.40;99.90
40996;DHT22;26723;57.478;12.066;2023-02-08T15:08:02;3.30;99.90
40996;DHT22;26723;57.478;12.066;2023-02-08T15:11:20;3.40;99.90
40996;DHT22;26723;57.478;12.066;2023-02-08T15:14:34;3.30;99.90
40996;DHT22;26723;57.478;12.066;2023-02-08T15:17:44;3.30;99.90
40996;DHT22;26723;57.478;12.066;2023-02-08T15:21:00;3.30;99.90
40996;DHT22;26723;57.478;12.066;2023-02-08T15:24:14;3.30;99.90
40996;DHT22;26723;57.478;12.066;2023-02-08T15:27:25;3.30;99.90
40996;DHT22;26723;57.478;12.066;2023-02-08T15:30:37;3.20;99.90
40996;DHT22;26723;57.478;12.066;2023-02-08T15:33:46;3.20;99.90
40996;DHT22;26723;57.478;12.066;2023-02-08T15:36:55;3.20;99.90
40996;DHT22;26723;57.478;12.066;2023-02-08T15:40:04;3.20;99.90
40996;DHT22;26723;57.478;12.066;2023-02-08T15:43:13;3.20;99.90
40996;DHT22;26723;57.478;12.066;2023-02-08T15:46:25;3.20;99.90
40996;DHT22;26723;57.478;12.066;2023-02-08T15:49:36;3.70;99.90
40996;DHT22;26723;57.478;12.066;2023-02-08T15:52:47;3.90;99.90
40996;DHT22;26723;57.478;12.066;2023-02-08T15:56:00;3.60;99.90
40996;DHT22;26723;57.478;12.066;2023-02-08T15:59:17;3.40;99.90
40996;DHT22;26723;57.478;12.066;2023-02-08T16:02:32;3.30;99.90
40996;DHT22;26723;57.478;12.066;2023-02-08T16:05:48;3.30;99.90
40996;DHT22;26723;57.478;12.066;2023-02-08T16:09:00;3.20;99.90
40996;DHT22;26723;57.478;12.066;2023-02-08T16:12:17;3.20;99.90
40996;DHT22;26723;57.478;12.066;2023-02-08T16:15:43;3.20;99.90
40996;DHT22;26723;57.478;12.066;2023-02-08T16:18:58;3.20;99.90
40996;DHT22;26723;57.478;12.066;2023-02-08T16:22:23;3.10;99.90
40996;DHT22;26723;57.478;12.066;2023-02-08T16:25:35;3.10;99.90
40996;DHT22;26723;57.478;12.066;2023-02-08T16:28:54;3.10;99.90
40996;DHT22;26723;57.478;12.066;2023-02-08T16:32:04;3.10;99.90
40996;DHT22;26723;57.478;12.066;2023-02-08T16:35:23;3.00;99.90
40996;DHT22;26723;57.478;12.066;2023-02-08T16:38:33;3.00;99.90
40996;DHT22;26723;57.478;12.066;2023-02-08T16:41:59;3.00;99.90
40996;DHT22;26723;57.478;12.066;2023-02-08T16:45:22;3.00;99.90
40996;DHT22;26723;57.478;12.066;2023-02-08T16:48:32;2.90;99.90
40996;DHT22;26723;57.478;12.066;2023-02-08T16:51:43;2.90;99.90
40996;DHT22;26723;57.478;12.066;2023-02-08T16:54:52;2.90;99.90
40996;DHT22;26723;57.478;12.066;2023-02-08T16:58:01;2.80;99.90
40996;DHT22;26723;57.478;12.066;2023-02-08T17:01:12;2.80;99.90
40996;DHT22;26723;57.478;12.066;2023-02-08T17:04:20;2.80;99.90
40996;DHT22;26723;57.478;12.066;2023-02-08T17:07:31;2.70;99.90
40996;DHT22;26723;57.478;12.066;2023-02-08T17:10:41;2.70;99.90
40996;DHT22;26723;57.478;12.066;2023-02-08T17:13:51;2.70;99.90
40996;DHT22;26723;57.478;12.066;2023-02-08T17:17:01;2.70;99.90
40996;DHT22;26723;57.478;12.066;2023-02-08T17:20:22;2.70;99.90
40996;DHT22;26723;57.478;12.066;2023-02-08T17:23:32;2.70;99.90
40996;DHT22;26723;57.478;12.066;2023-02-08T17:26:42;2.60;99.90
40996;DHT22;26723;57.478;12.066;2023-02-08T17:29:50;2.60;99.90
40996;DHT22;26723;57.478;12.066;2023-02-08T17:32:59;2.60;99.90
40996;DHT22;26723;57.478;12.066;2023-02-08T17:36:09;2.60;99.90
40996;DHT22;26723;57.478;12.066;2023-02-08T17:39:20;2.60;99.90
40996;DHT22;26723;57.478;12.066;2023-02-08T17:42:28;2.60;99.90
40996;DHT22;26723;57.478;12.066;2023-02-08T17:45:39;2.60;99.90
40996;DHT22;26723;57.478;12.066;2023-02-08T17:48:50;2.60;99.90
40996;DHT22;26723;57.478;12.066;2023-02-08T17:51:58;2.60;99.90
40996;DHT22;26723;57.478;12.066;2023-02-08T17:55:10;2.60;99.90
40996;DHT22;26723;57.478;12.066;2023-02-08T17:58:18;2.60;99.90
40996;DHT22;26723;57.478;12.066;2023-02-08T18:01:27;2.60;99.90
40996;DHT22;26723;57.478;12.066;2023-02-08T18:04:35;2.60;99.90
40996;DHT22;26723;57.478;12.066;2023-02-08T18:07:44;2.60;99.90
40996;DHT22;26723;57.478;12.066;2023-02-08T18:10:54;2.60;99.90
40996;DHT22;26723;57.478;12.066;2023-02-08T18:14:02;2.70;99.90
40996;DHT22;26723;57.478;12.066;2023-02-08T18:17:11;2.60;99.90
40996;DHT22;26723;57.478;12.066;2023-02-08T18:20:19;2.60;99.90
40996;DHT22;26723;57.478;12.066;2023-02-08T18:23:28;2.60;99.90
40996;DHT22;26723;57.478;12.066;2023-02-08T18:26:37;2.60;99.90
40996;DHT22;26723;57.478;12.066;2023-02-08T18:29:46;2.60;99.90
40996;DHT22;26723;57.478;12.066;2023-02-08T18:32:54;2.60;99.90
40996;DHT22;26723;57.478;12.066;2023-02-08T18:36:03;2.60;99.90
40996;DHT22;26723;57.478;12.066;2023-02-08T18:39:13;2.60;99.90
40996;DHT22;26723;57.478;12.066;2023-02-08T18:42:24;2.60;99.90
40996;DHT22;26723;57.478;12.066;2023-02-08T18:45:34;2.60;99.90
40996;DHT22;26723;57.478;12.066;2023-02-08T18:48:43;2.60;99.90
40996;DHT22;26723;57.478;12.066;2023-02-08T18:51:52;2.60;99.90
40996;DHT22;26723;57.478;12.066;2023-02-08T18:55:01;2.60;99.90
40996;DHT22;26723;57.478;12.066;2023-02-08T18:58:10;2.60;99.90
40996;DHT22;26723;57.478;12.066;2023-02-08T19:01:20;2.60;99.90
40996;DHT22;26723;57.478;12.066;2023-02-08T19:04:29;2.70;99.90
40996;DHT22;26723;57.478;12.066;2023-02-08T19:07:38;2.70;99.90
40996;DHT22;26723;57.478;12.066;2023-02-08T19:10:46;2.60;99.90
40996;DHT22;26723;57.478;12.066;2023-02-08T19:13:58;2.60;99.90
40996;DHT22;26723;57.478;12.066;2023-02-08T19:17:08;2.60;99.90
40996;DHT22;26723;57.478;12.066;2023-02-08T19:20:20;2.60;99.90
40996;DHT22;26723;57.478;12.066;2023-02-08T19:23:29;2.60;99.90
40996;DHT22;26723;57.478;12.066;2023-02-08T19:26:38;2.60;99.90
40996;DHT22;26723;57.478;12.066;2023-02-08T19:29:48;2.60;99.90
40996;DHT22;26723;57.478;12.066;2023-02-08T19:32:58;2.60;99.90
40996;DHT22;26723;57.478;12.066;2023-02-08T19:36:07;2.60;99.90
40996;DHT22;26723;57.478;12.066;2023-02-08T19:39:18;2.70;99.90
40996;DHT22;26723;57.478;12.066;2023-02-08T19:42:27;2.70;99.90
40996;DHT22;26723;57.478;12.066;2023-02-08T19:45:36;2.70;99.90
40996;DHT22;26723;57.478;12.066;2023-02-08T19:48:45;2.70;99.90
40996;DHT22;26723;57.478;12.066;2023-02-08T19:51:54;2.70;99.90
40996;DHT22;26723;57.478;12.066;2023-02-08T19:55:03;2.70;99.90
40996;DHT22;26723;57.478;12.066;2023-02-08T19:58:12;2.70;99.90
40996;DHT22;26723;57.478;12.066;2023-02-08T20:01:23;2.70;99.90
40996;DHT22;26723;57.478;12.066;2023-02-08T20:04:32;2.70;99.90
40996;DHT22;26723;57.478;12.066;2023-02-08T20:07:40;2.70;99.90
40996;DHT22;26723;57.478;12.066;2023-02-08T20:10:49;2.70;99.90
40996;DHT22;26723;57.478;12.066;2023-02-08T20:14:01;2.70;99.90
40996;DHT22;26723;57.478;12.066;2023-02-08T20:17:11;2.70;99.90
40996;DHT22;26723;57.478;12.066;2023-02-08T20:20:20;2.70;99.90
40996;DHT22;26723;57.478;12.066;2023-02-08T20:23:28;2.70;99.90
40996;DHT22;26723;57.478;12.066;2023-02-08T20:26:38;2.70;99.90
40996;DHT22;26723;57.478;12.066;2023-02-08T20:29:49;2.80;99.90
40996;DHT22;26723;57.478;12.066;2023-02-08T20:32:59;2.70;99.90